Pilar Observatorio, Argentina
Current Conditions -  °F | °C
As of 9:00 PM on Monday 22 Dec 2014 (Local Time) from SACO Reporting Station
Scattered Clouds Scattered Clouds  
Wind Chill: 17°   Ceiling: Unl
Heat Index: 17°   Visibility: 6mi
Dew Point:   Wind: 3mph
Humidity: 45%   Direction: 110°ESE
Pressure: 30.27"   Gusts: NA
Location:  31.67°S, 63.88°W
Report Text: SACO 230000Z 11003KT 9999 SCT030 SCT10017/05 Q1025
Loading
Personal Weather Stations






























Interactive Weather Map New forecast layout! Learn more

10-Day Weather Forecast

Advertisements
Track Severe Weather on mobile